Crossville, Alabama
Current Conditions -  °F | °C
As of 2:35 AM on Monday 24 Nov 2014 (Local Time) from K8A0 Reporting Station
Overcast Overcast  
Wind Chill: 63°   Ceiling: 2900
Heat Index: 63°   Visibility: 10mi
Dew Point: 61°   Wind: 17mph
Humidity: 94%   Direction: 210°SSW
Pressure: 29.66"   Gusts: 23mph
Location:  34.29°N, 85.99°W
Report Text: K8A0 240835Z AUTO 21015G20KT 10SM SCT023 BKN029 OVC034 17/16 A2966 RMK AO2
Loading
Personal Weather Stations






























Interactive Weather Map New forecast layout! Learn more

10-Day Weather Forecast

Advertisements
Track Severe Weather on mobile